createdAt,value
2023-02-12T00:00:10.086Z,0.73
2023-02-12T00:02:43.135Z,0.57
2023-02-12T00:05:10.126Z,0.91
2023-02-12T00:07:37.030Z,0.50
2023-02-12T00:10:04.580Z,0.49
2023-02-12T00:12:31.438Z,0.51
2023-02-12T00:14:58.307Z,0.54
2023-02-12T00:17:25.187Z,0.65
2023-02-12T00:19:52.098Z,0.83
2023-02-12T00:22:18.986Z,0.90
2023-02-12T00:24:45.872Z,0.54
2023-02-12T00:27:12.933Z,0.29
2023-02-12T00:29:39.912Z,0.15
2023-02-12T00:32:07.532Z,0.47
2023-02-12T00:34:34.432Z,0.53
2023-02-12T00:37:01.298Z,0.56
2023-02-12T00:39:28.237Z,0.66
2023-02-12T00:41:55.162Z,0.83
2023-02-12T00:44:22.109Z,0.79
2023-02-12T00:46:49.120Z,0.57
2023-02-12T00:49:19.130Z,0.96
2023-02-12T00:51:46.609Z,0.94
2023-02-12T00:54:13.482Z,-0.08
2023-02-12T00:56:40.539Z,-0.05
2023-02-12T00:59:07.574Z,0.19
2023-02-12T01:01:35.727Z,-0.19
2023-02-12T01:04:03.858Z,-0.39
2023-02-12T01:06:30.742Z,-0.37
2023-02-12T01:08:57.734Z,0.29
2023-02-12T01:11:24.623Z,0.12
2023-02-12T01:13:52.443Z,0.07
2023-02-12T01:16:22.618Z,-0.34
2023-02-12T01:18:52.166Z,-0.16
2023-02-12T01:21:23.342Z,0.12
2023-02-12T01:23:50.457Z,0.34
2023-02-12T01:26:19.188Z,0.59
2023-02-12T01:28:50.850Z,0.76
2023-02-12T01:31:21.707Z,0.81
2023-02-12T01:33:53.367Z,0.90
2023-02-12T01:36:21.181Z,1.12
2023-02-12T01:38:49.038Z,0.93
2023-02-12T01:41:21.658Z,0.99
2023-02-12T01:44:07.162Z,1.13
2023-02-12T01:46:34.157Z,1.12
2023-02-12T01:49:03.609Z,0.70
2023-02-12T01:51:32.103Z,0.78
2023-02-12T01:54:01.824Z,0.53
2023-02-12T01:56:29.954Z,0.55
2023-02-12T01:58:57.891Z,0.78
2023-02-12T02:01:28.937Z,0.52
2023-02-12T02:04:05.505Z,0.53
2023-02-12T02:06:36.200Z,0.35
2023-02-12T02:09:04.566Z,0.96
2023-02-12T02:11:50.754Z,0.18
2023-02-12T02:14:33.203Z,0.62
2023-02-12T02:17:31.293Z,1.04
2023-02-12T02:20:04.227Z,0.98
2023-02-12T02:22:33.863Z,0.92
2023-02-12T02:25:03.707Z,1.03
2023-02-12T02:27:36.042Z,1.15
2023-02-12T02:30:57.149Z,1.24
2023-02-12T02:33:56.167Z,0.99
2023-02-12T02:36:59.652Z,0.31
2023-02-12T02:40:05.859Z,0.06
2023-02-12T02:42:58.690Z,-0.05
2023-02-12T02:45:34.076Z,0.03
2023-02-12T02:48:06.968Z,0.04
2023-02-12T02:50:38.452Z,0.16
2023-02-12T02:53:13.482Z,0.23
2023-02-12T02:55:57.286Z,0.25
2023-02-12T02:58:30.861Z,0.19
2023-02-12T03:01:05.968Z,0.24
2023-02-12T03:03:38.654Z,0.12
2023-02-12T03:06:18.681Z,0.08
2023-02-12T03:08:54.555Z,0.37
2023-02-12T03:11:24.540Z,0.51
2023-02-12T03:14:08.009Z,0.45
2023-02-12T03:16:39.604Z,0.29
2023-02-12T03:19:17.162Z,0.37
2023-02-12T03:21:49.906Z,0.53
2023-02-12T03:24:28.917Z,0.31
2023-02-12T03:27:09.265Z,0.51
2023-02-12T03:29:36.377Z,0.53
2023-02-12T03:32:28.027Z,0.33
2023-02-12T03:35:23.916Z,0.47
2023-02-12T03:38:04.149Z,0.56
2023-02-12T03:40:51.503Z,0.62
2023-02-12T03:43:42.848Z,0.76
2023-02-12T03:46:24.987Z,0.72
2023-02-12T03:49:07.336Z,0.77
2023-02-12T03:51:39.714Z,1.01
2023-02-12T03:54:09.434Z,1.17
2023-02-12T03:56:52.205Z,1.62
2023-02-12T03:59:21.438Z,1.47
2023-02-12T04:01:50.532Z,1.07
2023-02-12T04:04:17.684Z,0.93
2023-02-12T04:06:47.936Z,1.23
2023-02-12T04:09:15.717Z,1.25
2023-02-12T04:12:07.124Z,1.09
2023-02-12T04:15:12.424Z,1.31
2023-02-12T04:18:02.650Z,1.09
2023-02-12T04:20:44.745Z,0.30
2023-02-12T04:23:18.096Z,-0.28
2023-02-12T04:26:03.048Z,-0.41
2023-02-12T04:29:14.659Z,-0.58
2023-02-12T04:31:47.675Z,-0.70
2023-02-12T04:34:44.386Z,-0.51
2023-02-12T04:37:19.651Z,-0.58
2023-02-12T04:39:48.218Z,-0.68
2023-02-12T04:42:15.674Z,-0.43
2023-02-12T04:44:44.433Z,-0.53
2023-02-12T04:47:16.361Z,-0.50
2023-02-12T04:49:43.517Z,0.01
2023-02-12T04:52:10.458Z,0.43
2023-02-12T04:54:37.608Z,0.89
2023-02-12T04:57:04.578Z,0.31
2023-02-12T04:59:31.497Z,-0.21
2023-02-12T05:01:58.515Z,0.11
2023-02-12T05:04:25.425Z,0.19
2023-02-12T05:06:52.260Z,-0.03
2023-02-12T05:09:20.478Z,0.15
2023-02-12T05:11:47.521Z,0.22
2023-02-12T05:14:14.848Z,0.28
2023-02-12T05:16:41.756Z,0.78
2023-02-12T05:19:09.735Z,1.02
2023-02-12T05:21:38.000Z,0.63
2023-02-12T05:24:05.626Z,0.56
2023-02-12T05:26:32.826Z,0.67
2023-02-12T05:28:59.751Z,0.24
2023-02-12T05:31:27.126Z,-0.07
2023-02-12T05:33:54.132Z,-0.16
2023-02-12T05:36:23.946Z,0.00
2023-02-12T05:38:56.881Z,0.01
2023-02-12T05:41:25.439Z,0.27
2023-02-12T05:43:53.180Z,0.44
2023-02-12T05:46:22.127Z,0.55
2023-02-12T05:48:49.312Z,1.07
2023-02-12T05:51:20.069Z,1.45
2023-02-12T05:53:47.500Z,1.36
2023-02-12T05:56:20.435Z,1.65
2023-02-12T05:58:52.446Z,2.05
2023-02-12T06:01:23.079Z,2.42
2023-02-12T06:03:49.973Z,2.93
2023-02-12T06:06:16.894Z,3.29
2023-02-12T06:08:44.265Z,3.46
2023-02-12T06:11:14.284Z,3.68
2023-02-12T06:13:41.573Z,3.92
2023-02-12T06:16:16.604Z,4.02
2023-02-12T06:18:43.471Z,3.90
2023-02-12T06:21:10.408Z,3.96
2023-02-12T06:23:37.333Z,4.01
2023-02-12T06:26:04.542Z,3.74
2023-02-12T06:28:31.456Z,3.75
2023-02-12T06:30:58.513Z,3.61
2023-02-12T06:33:25.481Z,3.07
2023-02-12T06:35:52.358Z,2.83
2023-02-12T06:38:19.285Z,3.85
2023-02-12T06:40:46.229Z,3.97
2023-02-12T06:43:13.132Z,4.52
2023-02-12T06:45:40.149Z,5.28
2023-02-12T06:48:07.181Z,5.70
2023-02-12T06:50:34.233Z,4.52
2023-02-12T06:53:01.155Z,4.01
2023-02-12T06:55:28.064Z,3.68
2023-02-12T06:57:54.981Z,3.50
2023-02-12T07:00:22.374Z,3.67
2023-02-12T07:02:54.526Z,3.97
2023-02-12T07:05:22.134Z,3.19
2023-02-12T07:07:49.036Z,2.93
2023-02-12T07:10:16.202Z,2.78
2023-02-12T07:12:43.117Z,2.66
2023-02-12T07:15:10.909Z,2.76
2023-02-12T07:17:38.039Z,2.84
2023-02-12T07:20:05.733Z,3.21
2023-02-12T07:22:36.193Z,3.71
2023-02-12T07:25:03.278Z,3.67
2023-02-12T07:27:30.200Z,3.88
2023-02-12T07:29:57.061Z,4.16
2023-02-12T07:32:23.922Z,5.08
2023-02-12T07:34:50.802Z,5.14
2023-02-12T07:37:22.717Z,6.11
2023-02-12T07:39:50.287Z,5.75
2023-02-12T07:42:17.941Z,5.90
2023-02-12T07:44:49.728Z,5.03
2023-02-12T07:47:17.187Z,3.96
2023-02-12T07:49:44.368Z,3.55
2023-02-12T07:52:13.371Z,3.81
2023-02-12T07:54:40.469Z,4.08
2023-02-12T07:57:07.334Z,4.31
2023-02-12T07:59:34.220Z,5.40
2023-02-12T08:02:01.387Z,5.04
2023-02-12T08:04:28.443Z,5.33
2023-02-12T08:06:56.591Z,5.18
2023-02-12T08:09:27.148Z,6.25
2023-02-12T08:11:54.444Z,6.98
2023-02-12T08:14:22.257Z,7.07
2023-02-12T08:16:50.696Z,6.99
2023-02-12T08:19:22.526Z,7.70
2023-02-12T08:21:53.228Z,8.12
2023-02-12T08:24:22.213Z,8.04
2023-02-12T08:26:49.850Z,8.41
2023-02-12T08:29:19.240Z,8.43
2023-02-12T08:31:48.798Z,7.99
2023-02-12T08:34:20.945Z,7.70
2023-02-12T08:36:49.710Z,7.06
2023-02-12T08:39:18.088Z,7.37
2023-02-12T08:41:45.627Z,6.78
2023-02-12T08:44:13.511Z,7.24
2023-02-12T08:46:44.537Z,7.33
2023-02-12T08:49:14.903Z,7.82
2023-02-12T08:51:44.349Z,7.79
2023-02-12T08:54:18.093Z,7.91
2023-02-12T08:56:45.631Z,8.59
2023-02-12T08:59:13.725Z,8.77
2023-02-12T09:01:44.374Z,8.94
2023-02-12T09:04:18.190Z,8.39
2023-02-12T09:06:46.749Z,9.25
2023-02-12T09:09:14.416Z,9.10
2023-02-12T09:11:41.608Z,9.40
2023-02-12T09:14:12.500Z,8.58
2023-02-12T09:16:40.642Z,8.48
2023-02-12T09:19:09.304Z,8.33
2023-02-12T09:21:36.243Z,7.85
2023-02-12T09:24:03.806Z,7.79
2023-02-12T09:26:31.090Z,7.05
2023-02-12T09:28:58.551Z,6.77
2023-02-12T09:31:29.173Z,6.73
2023-02-12T09:34:03.697Z,7.12
2023-02-12T09:36:31.711Z,7.01
2023-02-12T09:39:00.155Z,6.81
2023-02-12T09:41:45.024Z,6.90
2023-02-12T09:44:22.100Z,6.70
2023-02-12T09:46:54.204Z,6.39
2023-02-12T09:49:48.728Z,6.05
2023-02-12T09:52:22.528Z,5.93
2023-02-12T09:54:50.633Z,6.23
2023-02-12T09:57:23.986Z,5.91
2023-02-12T10:00:17.086Z,5.49
2023-02-12T10:02:44.148Z,5.44
2023-02-12T10:05:18.988Z,5.48
2023-02-12T10:08:16.133Z,5.53
2023-02-12T10:10:48.580Z,5.45
2023-02-12T10:13:27.754Z,5.11
2023-02-12T10:16:13.182Z,4.94
2023-02-12T10:18:56.025Z,5.25
2023-02-12T10:21:48.140Z,4.74
2023-02-12T10:24:37.450Z,4.42
2023-02-12T10:27:13.276Z,4.37
2023-02-12T10:29:44.697Z,4.27
2023-02-12T10:32:35.766Z,4.43
2023-02-12T10:35:14.060Z,4.41
2023-02-12T10:37:49.214Z,4.72
2023-02-12T10:40:27.751Z,4.74
2023-02-12T10:42:55.014Z,5.11
2023-02-12T10:45:26.610Z,5.13
2023-02-12T10:48:23.119Z,5.48
2023-02-12T10:51:10.285Z,4.82
2023-02-12T10:53:42.676Z,4.75
2023-02-12T10:56:15.418Z,4.76
2023-02-12T10:59:02.752Z,5.17
2023-02-12T11:01:34.189Z,5.01
2023-02-12T11:04:20.968Z,5.32
2023-02-12T11:07:04.280Z,5.35
2023-02-12T11:09:36.218Z,5.14
2023-02-12T11:12:04.114Z,5.25
2023-02-12T11:14:31.190Z,5.32
2023-02-12T11:17:00.348Z,5.79
2023-02-12T11:19:29.844Z,5.98
2023-02-12T11:22:19.015Z,6.04
2023-02-12T11:24:49.635Z,6.35
2023-02-12T11:27:16.430Z,6.51
2023-02-12T11:29:44.742Z,6.49
2023-02-12T11:32:17.702Z,6.13
2023-02-12T11:34:44.838Z,6.27
2023-02-12T11:37:18.306Z,6.41
2023-02-12T11:39:50.504Z,6.41
2023-02-12T11:42:24.497Z,6.34
2023-02-12T11:44:55.265Z,5.89
2023-02-12T11:47:25.921Z,6.14
2023-02-12T11:49:57.004Z,6.19
2023-02-12T11:52:31.497Z,6.43
2023-02-12T11:55:05.167Z,6.51
2023-02-12T11:57:39.907Z,5.97
2023-02-12T12:00:19.605Z,6.26
2023-02-12T12:03:21.594Z,6.09
2023-02-12T12:05:54.966Z,5.84
2023-02-12T12:08:29.367Z,5.54
2023-02-12T12:11:09.680Z,5.54
2023-02-12T12:13:53.985Z,5.43
2023-02-12T12:16:56.877Z,5.25
2023-02-12T12:19:52.903Z,5.12
2023-02-12T12:22:38.617Z,4.93
2023-02-12T12:25:27.375Z,4.78
2023-02-12T12:28:29.786Z,4.96
2023-02-12T12:31:12.585Z,4.96
2023-02-12T12:33:51.727Z,5.11
2023-02-12T12:36:42.658Z,5.11
2023-02-12T12:39:47.901Z,5.14
2023-02-12T12:42:56.137Z,5.27
2023-02-12T12:45:34.746Z,5.53
2023-02-12T12:48:13.312Z,5.28
2023-02-12T12:51:26.709Z,5.51
2023-02-12T12:53:56.741Z,5.78
2023-02-12T12:56:54.609Z,5.84
2023-02-12T12:59:30.451Z,5.67
2023-02-12T13:02:18.749Z,5.31
2023-02-12T13:05:11.714Z,5.41
2023-02-12T13:08:00.645Z,5.45
2023-02-12T13:10:45.978Z,5.02
2023-02-12T13:13:30.296Z,4.96
2023-02-12T13:15:57.438Z,5.33
2023-02-12T13:18:24.468Z,5.26
2023-02-12T13:21:04.343Z,4.89
2023-02-12T13:23:40.170Z,5.12
2023-02-12T13:26:31.227Z,4.95
2023-02-12T13:29:15.255Z,5.20
2023-02-12T13:31:49.955Z,5.25
2023-02-12T13:34:19.031Z,5.32
2023-02-12T13:36:47.060Z,5.57
2023-02-12T13:39:27.674Z,5.34
2023-02-12T13:42:19.623Z,5.35
2023-02-12T13:45:03.308Z,4.92
2023-02-12T13:47:35.790Z,5.33
2023-02-12T13:50:02.683Z,5.28
2023-02-12T13:52:41.706Z,5.44
2023-02-12T13:55:20.235Z,5.33
2023-02-12T13:57:47.212Z,5.51
2023-02-12T14:00:48.068Z,4.83
2023-02-12T14:03:15.194Z,4.83
2023-02-12T14:05:42.646Z,4.94
2023-02-12T14:08:34.943Z,5.06
2023-02-12T14:11:09.274Z,4.94
2023-02-12T14:13:52.114Z,5.30
2023-02-12T14:16:40.730Z,4.99
2023-02-12T14:19:38.476Z,4.70
2023-02-12T14:22:14.185Z,4.57
2023-02-12T14:24:49.355Z,4.52
2023-02-12T14:27:19.616Z,4.26
2023-02-12T14:30:25.844Z,4.50
2023-02-12T14:32:56.013Z,4.57
2023-02-12T14:35:40.693Z,5.05
2023-02-12T14:38:16.735Z,5.11
2023-02-12T14:40:50.649Z,5.15
2023-02-12T14:43:31.391Z,5.13
2023-02-12T14:46:24.268Z,4.49
2023-02-12T14:48:51.228Z,4.73
2023-02-12T14:51:31.742Z,4.92
2023-02-12T14:53:59.394Z,5.33
2023-02-12T14:56:27.271Z,5.09
2023-02-12T14:58:59.030Z,5.77
2023-02-12T15:01:34.235Z,5.39
2023-02-12T15:04:17.340Z,5.02
2023-02-12T15:06:53.947Z,5.23
2023-02-12T15:09:36.548Z,5.51
2023-02-12T15:12:11.132Z,5.46
2023-02-12T15:14:46.557Z,5.50
2023-02-12T15:17:35.350Z,5.59
2023-02-12T15:20:08.341Z,5.66
2023-02-12T15:22:38.274Z,5.50
2023-02-12T15:25:25.296Z,5.04
2023-02-12T15:27:56.394Z,4.67
2023-02-12T15:30:35.319Z,4.74
2023-02-12T15:33:05.894Z,4.97
2023-02-12T15:35:36.064Z,4.95
2023-02-12T15:38:04.361Z,4.97
2023-02-12T15:40:32.047Z,5.00
2023-02-12T15:43:03.042Z,4.84
2023-02-12T15:45:35.365Z,4.53
2023-02-12T15:48:10.509Z,4.60
2023-02-12T15:51:04.492Z,4.67
2023-02-12T15:53:31.500Z,4.53
2023-02-12T15:55:59.676Z,4.53
2023-02-12T15:58:49.962Z,4.54
2023-02-12T16:01:25.734Z,4.46
2023-02-12T16:03:55.857Z,4.16
2023-02-12T16:06:26.224Z,4.13
2023-02-12T16:09:02.434Z,4.25
2023-02-12T16:11:31.657Z,3.72
2023-02-12T16:14:01.478Z,3.47
2023-02-12T16:16:41.004Z,3.78
2023-02-12T16:19:08.003Z,3.57
2023-02-12T16:21:38.551Z,3.25
2023-02-12T16:24:06.250Z,3.11
2023-02-12T16:26:33.248Z,3.19
2023-02-12T16:29:00.157Z,3.12
2023-02-12T16:31:28.057Z,3.12
2023-02-12T16:33:58.646Z,3.07
2023-02-12T16:36:25.455Z,3.19
2023-02-12T16:39:04.079Z,3.15
2023-02-12T16:41:32.642Z,3.14
2023-02-12T16:44:02.351Z,3.20
2023-02-12T16:46:32.744Z,3.26
2023-02-12T16:49:02.384Z,3.29
2023-02-12T16:51:33.652Z,3.45
2023-02-12T16:54:02.952Z,3.51
2023-02-12T16:56:38.752Z,3.73
2023-02-12T16:59:06.803Z,3.80
2023-02-12T17:01:36.751Z,4.24
2023-02-12T17:04:09.022Z,3.91
2023-02-12T17:06:36.137Z,3.62
2023-02-12T17:09:03.172Z,3.55
2023-02-12T17:11:30.184Z,4.00
2023-02-12T17:13:57.322Z,3.80
2023-02-12T17:16:30.733Z,3.35
2023-02-12T17:18:59.510Z,3.77
2023-02-12T17:21:53.044Z,4.05
2023-02-12T17:24:22.838Z,3.45
2023-02-12T17:26:50.891Z,3.60
2023-02-12T17:29:18.839Z,3.48
2023-02-12T17:31:46.274Z,3.47
2023-02-12T17:34:13.811Z,3.80
2023-02-12T17:36:41.148Z,4.27
2023-02-12T17:39:09.538Z,3.77
2023-02-12T17:41:37.586Z,3.58
2023-02-12T17:44:04.745Z,3.18
2023-02-12T17:46:32.119Z,3.71
2023-02-12T17:48:59.146Z,3.44
2023-02-12T17:51:26.667Z,3.38
2023-02-12T17:53:53.778Z,3.69
2023-02-12T17:56:22.957Z,3.63
2023-02-12T17:58:50.141Z,3.77
2023-02-12T18:01:19.785Z,3.67
2023-02-12T18:03:47.111Z,3.67
2023-02-12T18:06:16.736Z,3.78
2023-02-12T18:08:43.981Z,3.76
2023-02-12T18:11:11.893Z,3.77
2023-02-12T18:13:39.625Z,3.75
2023-02-12T18:16:08.946Z,3.54
2023-02-12T18:18:36.751Z,3.47
2023-02-12T18:21:11.985Z,2.25
2023-02-12T18:23:39.593Z,2.69
2023-02-12T18:26:09.186Z,2.73
2023-02-12T18:28:36.694Z,2.86
2023-02-12T18:31:04.819Z,2.99
2023-02-12T18:33:32.245Z,3.07
2023-02-12T18:36:05.883Z,2.41
2023-02-12T18:38:35.384Z,2.42
2023-02-12T18:41:09.460Z,2.21
2023-02-12T18:43:37.230Z,2.01
2023-02-12T18:46:19.743Z,1.75
2023-02-12T18:48:47.543Z,1.58
2023-02-12T18:51:17.806Z,1.53
2023-02-12T18:53:45.172Z,1.57
2023-02-12T18:56:13.229Z,1.48
2023-02-12T18:58:40.954Z,1.56
2023-02-12T19:01:16.175Z,1.58
2023-02-12T19:03:44.417Z,1.52
2023-02-12T19:06:11.909Z,1.74
2023-02-12T19:08:39.445Z,1.68
2023-02-12T19:11:08.110Z,1.72
2023-02-12T19:13:35.107Z,1.96
2023-02-12T19:16:16.220Z,2.07
2023-02-12T19:18:43.228Z,2.27
2023-02-12T19:21:13.384Z,2.39
2023-02-12T19:23:40.577Z,2.28
2023-02-12T19:26:13.886Z,2.15
2023-02-12T19:28:42.265Z,2.27
2023-02-12T19:31:14.184Z,2.25
2023-02-12T19:33:42.773Z,2.16
2023-02-12T19:36:12.387Z,1.92
2023-02-12T19:38:40.508Z,1.84
2023-02-12T19:41:20.063Z,1.74
2023-02-12T19:43:47.445Z,1.68
2023-02-12T19:46:17.741Z,1.70
2023-02-12T19:48:46.348Z,1.82
2023-02-12T19:51:18.494Z,1.57
2023-02-12T19:53:47.207Z,1.44
2023-02-12T19:56:15.647Z,1.43
2023-02-12T19:58:43.104Z,1.53
2023-02-12T20:01:16.709Z,1.37
2023-02-12T20:03:45.245Z,1.34
2023-02-12T20:06:16.109Z,1.63
2023-02-12T20:08:44.391Z,1.34
2023-02-12T20:11:15.468Z,1.65
2023-02-12T20:13:42.988Z,1.12
2023-02-12T20:16:15.947Z,1.09
2023-02-12T20:18:44.861Z,1.29
2023-02-12T20:21:34.440Z,1.35
2023-02-12T20:24:02.396Z,1.19
2023-02-12T20:26:31.494Z,1.18
2023-02-12T20:29:00.132Z,1.05
2023-02-12T20:31:32.548Z,1.01
2023-02-12T20:34:07.542Z,0.95
2023-02-12T20:36:38.788Z,1.09
2023-02-12T20:39:08.312Z,1.11
2023-02-12T20:41:37.254Z,1.06
2023-02-12T20:44:06.885Z,1.12
2023-02-12T20:46:36.284Z,1.44
2023-02-12T20:49:03.867Z,1.19
2023-02-12T20:51:31.324Z,1.53
2023-02-12T20:54:01.324Z,1.57
2023-02-12T20:56:31.406Z,0.98
2023-02-12T20:58:59.717Z,1.43
2023-02-12T21:01:33.010Z,1.45
2023-02-12T21:04:06.909Z,1.66
2023-02-12T21:06:34.616Z,1.15
2023-02-12T21:09:01.857Z,1.36
2023-02-12T21:11:29.945Z,1.09
2023-02-12T21:14:07.803Z,1.27
2023-02-12T21:16:45.552Z,1.45
2023-02-12T21:19:14.265Z,0.65
2023-02-12T21:21:42.329Z,1.19
2023-02-12T21:24:12.893Z,1.24
2023-02-12T21:26:40.354Z,0.91
2023-02-12T21:29:07.601Z,0.66
2023-02-12T21:31:46.263Z,0.27
2023-02-12T21:34:16.122Z,0.24
2023-02-12T21:36:47.620Z,0.15
2023-02-12T21:39:24.512Z,0.80
2023-02-12T21:41:54.175Z,1.35
2023-02-12T21:44:22.458Z,0.51
2023-02-12T21:46:49.793Z,0.76
2023-02-12T21:49:24.828Z,1.27
2023-02-12T21:51:54.500Z,1.50
2023-02-12T21:54:22.713Z,0.61
2023-02-12T21:56:50.770Z,0.91
2023-02-12T21:59:18.594Z,0.76
2023-02-12T22:01:51.563Z,0.64
2023-02-12T22:04:19.751Z,0.76
2023-02-12T22:06:49.105Z,0.85
2023-02-12T22:09:21.194Z,0.62
2023-02-12T22:11:48.394Z,0.57
2023-02-12T22:14:17.410Z,0.45
2023-02-12T22:16:45.522Z,0.25
2023-02-12T22:19:12.677Z,0.19
2023-02-12T22:21:41.995Z,0.10
2023-02-12T22:24:11.718Z,-0.02
2023-02-12T22:26:38.791Z,-0.36
2023-02-12T22:29:09.187Z,-0.28
2023-02-12T22:31:38.191Z,-0.43
2023-02-12T22:34:08.417Z,-0.43
2023-02-12T22:36:37.181Z,-0.09
2023-02-12T22:39:05.004Z,-0.09
2023-02-12T22:41:32.373Z,0.12
2023-02-12T22:44:00.773Z,0.16
2023-02-12T22:46:28.172Z,0.38
2023-02-12T22:48:55.459Z,-0.11
2023-02-12T22:51:24.306Z,-0.46
2023-02-12T22:53:51.613Z,-0.41
2023-02-12T22:56:19.208Z,-0.49
2023-02-12T22:58:46.520Z,-0.71
2023-02-12T23:01:15.956Z,-0.43
2023-02-12T23:03:43.354Z,-0.33
2023-02-12T23:06:22.003Z,-0.10
2023-02-12T23:08:54.800Z,-0.10
2023-02-12T23:11:24.649Z,0.03
2023-02-12T23:13:52.521Z,0.17
2023-02-12T23:16:19.560Z,0.38
2023-02-12T23:18:46.588Z,0.50
2023-02-12T23:21:13.935Z,0.46
2023-02-12T23:23:41.185Z,0.60
2023-02-12T23:26:08.110Z,0.63
2023-02-12T23:28:35.135Z,0.42
2023-02-12T23:31:02.737Z,0.43
2023-02-12T23:33:29.964Z,0.55
2023-02-12T23:35:56.893Z,0.42
2023-02-12T23:38:23.764Z,0.37
2023-02-12T23:40:50.679Z,0.47
2023-02-12T23:43:17.626Z,0.46
2023-02-12T23:45:45.564Z,0.60
2023-02-12T23:48:13.111Z,0.52
2023-02-12T23:50:40.619Z,0.51
2023-02-12T23:53:07.729Z,0.65
2023-02-12T23:55:37.246Z,0.57
2023-02-12T23:58:05.306Z,0.35
